createdAt,value
2022-09-20T00:04:08.274Z,83.80
2022-09-20T00:12:13.734Z,83.90
2022-09-20T00:20:21.814Z,83.80
2022-09-20T00:28:27.931Z,84.20
2022-09-20T00:36:35.866Z,84.80
2022-09-20T00:44:52.775Z,84.90
2022-09-20T00:53:05.567Z,84.90
2022-09-20T01:01:11.084Z,85.40
2022-09-20T01:09:19.118Z,85.80
2022-09-20T01:17:28.854Z,85.50
2022-09-20T01:25:59.449Z,85.10
2022-09-20T01:34:11.306Z,85.30
2022-09-20T01:42:17.709Z,85.00
2022-09-20T01:50:36.697Z,85.10
2022-09-20T01:59:24.344Z,84.40
2022-09-20T02:07:49.739Z,85.80
2022-09-20T02:16:14.165Z,86.20
2022-09-20T02:24:31.801Z,85.80
2022-09-20T02:32:54.270Z,85.40
2022-09-20T02:41:37.674Z,85.00
2022-09-20T02:49:56.681Z,84.90
2022-09-20T02:58:15.866Z,84.70
2022-09-20T03:06:30.413Z,84.40
2022-09-20T03:14:41.352Z,83.70
2022-09-20T03:23:01.140Z,84.50
2022-09-20T03:31:21.924Z,85.70
2022-09-20T03:39:50.798Z,86.00
2022-09-20T03:48:18.293Z,85.40
2022-09-20T03:56:44.246Z,85.60
2022-09-20T04:04:57.618Z,85.80
2022-09-20T04:13:16.524Z,85.20
2022-09-20T04:21:31.702Z,84.80
2022-09-20T04:29:44.829Z,85.20
2022-09-20T04:37:54.941Z,85.60
2022-09-20T04:46:42.510Z,84.40
2022-09-20T04:55:25.465Z,84.20
2022-09-20T05:03:58.623Z,83.70
2022-09-20T05:12:39.012Z,83.60
2022-09-20T05:20:56.915Z,82.60
2022-09-20T05:29:11.497Z,82.20
2022-09-20T05:37:31.129Z,82.10
2022-09-20T05:46:06.846Z,81.40
2022-09-20T05:54:38.457Z,82.40
2022-09-20T06:02:56.253Z,81.90
2022-09-20T06:11:17.559Z,81.70
2022-09-20T06:19:37.824Z,82.60
2022-09-20T06:27:48.235Z,80.70
2022-09-20T06:36:20.583Z,79.80
2022-09-20T06:44:25.927Z,79.00
2022-09-20T06:52:33.869Z,78.30
2022-09-20T07:00:39.861Z,78.60
2022-09-20T07:08:47.814Z,79.10
2022-09-20T07:16:53.038Z,78.00
2022-09-20T07:25:02.636Z,77.90
2022-09-20T07:33:10.067Z,77.60
2022-09-20T07:41:19.199Z,77.10
2022-09-20T07:49:25.488Z,77.50
2022-09-20T07:57:37.412Z,77.60
2022-09-20T08:05:43.337Z,77.90
2022-09-20T08:14:09.104Z,78.40
2022-09-20T08:22:14.840Z,78.00
2022-09-20T08:30:27.779Z,77.80
2022-09-20T08:47:10.073Z,76.20
2022-09-20T08:55:19.554Z,76.50
2022-09-20T09:03:28.848Z,75.30
2022-09-20T09:11:34.130Z,75.40
2022-09-20T09:19:50.487Z,73.40
2022-09-20T09:28:00.800Z,70.40
2022-09-20T09:36:16.801Z,69.10
2022-09-20T09:44:27.851Z,66.10
2022-09-20T09:52:36.552Z,63.30
2022-09-20T10:00:46.732Z,63.20
2022-09-20T10:09:17.042Z,63.30
2022-09-20T10:17:42.070Z,65.20
2022-09-20T10:25:55.269Z,66.30
2022-09-20T10:34:09.384Z,61.00
2022-09-20T10:42:45.973Z,61.50
2022-09-20T10:50:59.957Z,57.50
2022-09-20T10:59:27.971Z,50.60
2022-09-20T11:07:46.602Z,39.30
2022-09-20T11:16:02.401Z,34.60
2022-09-20T11:24:16.118Z,30.60
2022-09-20T11:32:28.674Z,29.70
2022-09-20T11:40:37.597Z,28.80
2022-09-20T11:48:48.425Z,27.90
2022-09-20T11:56:56.633Z,28.50
2022-09-20T12:05:06.479Z,27.90
2022-09-20T12:13:25.441Z,33.70
2022-09-20T12:21:33.354Z,39.40
2022-09-20T12:29:58.204Z,43.00
2022-09-20T12:38:29.154Z,46.90
2022-09-20T12:46:43.964Z,49.40
2022-09-20T12:54:59.478Z,50.40
2022-09-20T13:03:27.278Z,52.10
2022-09-20T13:11:42.904Z,53.90
2022-09-20T13:19:50.190Z,55.80
2022-09-20T13:28:06.296Z,57.60
2022-09-20T13:36:11.652Z,57.50
2022-09-20T13:44:25.585Z,57.70
2022-09-20T13:52:33.097Z,58.10
2022-09-20T14:00:50.024Z,58.40
2022-09-20T14:08:55.858Z,59.00
2022-09-20T14:17:07.449Z,58.90
2022-09-20T14:25:25.538Z,60.10
2022-09-20T14:33:33.680Z,59.90
2022-09-20T14:41:42.060Z,60.20
2022-09-20T14:49:50.020Z,60.90
2022-09-20T14:57:56.038Z,62.00
2022-09-20T15:06:04.339Z,63.30
2022-09-20T15:14:09.847Z,64.30
2022-09-20T15:22:18.805Z,65.50
2022-09-20T15:30:24.088Z,66.70
2022-09-20T15:38:32.071Z,67.80
2022-09-20T15:46:37.862Z,69.20
2022-09-20T15:54:46.285Z,70.00
2022-09-20T16:02:52.718Z,71.60
2022-09-20T16:11:04.272Z,72.30
2022-09-20T16:19:21.474Z,72.60
2022-09-20T16:27:31.836Z,72.20
2022-09-20T16:35:37.124Z,72.60
2022-09-20T16:43:45.320Z,73.00
2022-09-20T16:51:50.625Z,73.80
2022-09-20T16:59:59.077Z,75.30
2022-09-20T17:08:04.822Z,75.20
2022-09-20T17:16:14.985Z,75.60
2022-09-20T17:24:21.089Z,75.60
2022-09-20T17:32:29.551Z,76.40
2022-09-20T17:40:35.125Z,75.80
2022-09-20T17:48:43.193Z,76.10
2022-09-20T17:56:50.461Z,75.70
2022-09-20T18:04:58.584Z,75.70
2022-09-20T18:13:04.902Z,76.20
2022-09-20T18:21:20.272Z,76.30
2022-09-20T18:29:29.438Z,76.00
2022-09-20T18:37:37.944Z,76.10
2022-09-20T18:45:43.362Z,75.80
2022-09-20T18:53:51.444Z,76.00
2022-09-20T19:02:29.621Z,75.90
2022-09-20T19:10:45.146Z,75.60
2022-09-20T19:19:08.490Z,75.30
2022-09-20T19:27:17.811Z,75.00
2022-09-20T19:35:29.310Z,74.20
2022-09-20T19:43:59.760Z,75.20
2022-09-20T19:52:09.126Z,74.90
2022-09-20T20:00:20.301Z,74.90
2022-09-20T20:08:34.596Z,74.40
2022-09-20T20:16:50.387Z,74.50
2022-09-20T20:24:57.021Z,75.00
2022-09-20T20:33:06.062Z,75.00
2022-09-20T20:41:13.196Z,75.20
2022-09-20T20:49:21.086Z,75.70
2022-09-20T20:57:26.533Z,75.60
2022-09-20T21:05:34.457Z,76.00
2022-09-20T21:13:39.887Z,76.40
2022-09-20T21:21:49.638Z,77.00
2022-09-20T21:29:54.942Z,78.20
2022-09-20T21:38:02.825Z,78.60
2022-09-20T21:46:08.318Z,79.40
2022-09-20T21:54:16.230Z,78.80
2022-09-20T22:02:21.549Z,78.80
2022-09-20T22:10:29.475Z,78.80
2022-09-20T22:18:37.765Z,78.90
2022-09-20T22:26:47.776Z,79.00
2022-09-20T22:34:53.034Z,79.70
2022-09-20T22:43:01.669Z,79.90
2022-09-20T22:51:08.908Z,79.40
2022-09-20T22:59:17.838Z,79.20
2022-09-20T23:07:23.242Z,79.00
2022-09-20T23:15:31.192Z,78.90
2022-09-20T23:23:36.937Z,78.90
2022-09-20T23:31:47.293Z,78.90
2022-09-20T23:39:52.822Z,79.30
2022-09-20T23:48:00.716Z,79.20
2022-09-20T23:56:06.746Z,78.70
